Aplicació Alertes

Dades de l'estació automàtica Cassà de la Selva

?
?
Resum diari 22:30 TU
Dades diàries de l'estació meteorològica
Temperatura mitjana 3.0 °C
Temperatura màxima 12.8 °C 14:29 TU
Temperatura mínima -4.1 °C 7:00 TU
Humitat relativa mitjana 67%
Precipitació acumulada 0.0 mm
Ratxa màxima del vent (2 m) 16.9 km/h - 39º 2:29 TU
Irradiació solar global 9.0 MJ/m2

El tram horari està expressat en Temps Universal (TU). Cal sumar una hora en horari d'hivern i dues en horari d'estiu per passar a l'hora oficial.

Cassà de la Selva

Metadades estació meteorol´gica
Municipi Cassà de la Selva
Comarca Gironès
Altitud 171 m
Data alta 08.03.1993
Estat actual Operativa
Dades de període
Període
TU
TM
°C
TX
°C
TN
°C
HRM
%
PPT
mm
VVM (2 m)
km/h
DVM (2 m)
graus
VVX (2 m)
km/h
RS
W/m2
00:00 - 00:30 0.1 1.2 -0.5 75 0.0 1.4 58 6.1 0
00:30 - 01:00 -0.7 -0.3 -1.2 79 0.0 2.2 298 7.9 0
01:00 - 01:30 -1.0 -0.4 -1.5 80 0.0 0.4 51 4.3 0
01:30 - 02:00 -0.8 0.4 -1.6 81 0.0 1.4 262 6.8 0
02:00 - 02:30 2.7 5.0 -0.8 68 0.0 3.2 39 16.9 0
02:30 - 03:00 4.8 5.1 3.0 57 0.0 3.6 26 15.1 0
03:00 - 03:30 0.2 2.7 -1.0 75 0.0 2.9 272 10.8 0
03:30 - 04:00 -1.6 -1.0 -2.0 84 0.0 2.2 332 8.3 0
04:00 - 04:30 -1.6 -1.2 -1.9 84 0.0 1.1 60 6.8 0
04:30 - 05:00 -2.0 -1.3 -2.9 86 0.0 2.2 28 8.6 0
05:00 - 05:30 -1.8 -1.5 -2.3 87 0.0 0.7 5 5.0 0
05:30 - 06:00 -2.3 -1.8 -2.9 86 0.0 1.1 11 7.6 0
06:00 - 06:30 -3.4 -2.8 -3.9 90 0.0 2.2 347 7.9 0
06:30 - 07:00 -3.7 -3.6 -4.1 91 0.0 0.4 57 4.3 0
07:00 - 07:30 -4.0 -3.8 -4.1 92 0.0 0.4 29 3.2 5
07:30 - 08:00 -3.3 -2.2 -3.8 90 0.0 0.4 113 5.0 34
08:00 - 08:30 -1.0 0.2 -2.3 81 0.0 1.1 111 5.8 166
08:30 - 09:00 1.8 3.2 0.4 71 0.0 1.4 122 5.4 230
09:00 - 09:30 3.6 4.9 2.2 62 0.0 2.9 209 7.6 284
09:30 - 10:00 7.5 9.1 5.1 44 0.0 2.2 119 7.9 345
10:00 - 10:30 9.0 10.1 8.5 32 0.0 2.5 199 6.1 403
10:30 - 11:00 10.3 10.7 10.0 29 0.0 4.0 128 10.8 434
11:00 - 11:30 10.6 11.1 10.3 30 0.0 5.0 131 11.2 405
11:30 - 12:00 10.8 11.3 10.4 31 0.0 7.2 114 16.9 474
12:00 - 12:30 11.5 12.0 11.0 28 0.0 5.8 116 14.8 455
12:30 - 13:00 11.5 12.0 11.0 27 0.0 4.7 148 12.2 388
13:00 - 13:30 11.8 12.5 11.5 27 0.0 4.7 148 11.9 397
13:30 - 14:00 12.0 12.5 11.6 27 0.0 5.0 186 13.3 345
14:00 - 14:30 12.3 12.8 11.9 29 0.0 3.6 154 10.8 290
14:30 - 15:00 12.3 12.6 12.0 32 0.0 4.3 171 8.6 218
15:00 - 15:30 11.5 11.9 11.1 35 0.0 4.3 225 9.4 117
15:30 - 16:00 10.8 11.6 8.7 40 0.0 1.1 117 4.3 54
16:00 - 16:30 7.4 8.6 5.6 53 0.0 0.4 47 2.2 5
16:30 - 17:00 4.4 5.5 3.5 65 0.0 0.4 35 3.2 0
17:00 - 17:30 2.8 3.4 2.1 71 0.0 0.7 71 5.0 0
17:30 - 18:00 1.6 2.0 1.1 76 0.0 0.0 36 2.2 0
18:00 - 18:30 0.8 1.1 0.6 80 0.0 0.7 44 3.6 0
18:30 - 19:00 0.6 0.7 0.4 82 0.0 0.7 40 6.5 0
19:00 - 19:30 0.2 0.4 -0.3 84 0.0 0.7 55 4.3 0
19:30 - 20:00 -0.6 -0.3 -0.8 87 0.0 0.4 47 3.2 0
20:00 - 20:30 -0.6 -0.4 -0.7 89 0.0 0.4 44 2.5 0
20:30 - 21:00 -0.8 -0.5 -0.9 89 0.0 0.4 36 2.2 0
21:00 - 21:30 -0.9 -0.8 -1.1 90 0.0 0.4 34 3.6 0
21:30 - 22:00 -0.9 -0.7 -1.1 90 0.0 0.7 41 5.0 0
22:00 - 22:30 -1.4 -1.0 -2.1 91 0.0 0.4 354 3.6 0
22:30 - 23:00 -1.7 -1.1 -2.0 94 0.0 0.4 41 3.2 0
23:00 - 23:30 (s/d) (s/d) (s/d) (s/d) (s/d) (s/d) (s/d) (s/d) (s/d)

Les dades en taronja només han passat un control de qualitat automàtic. Resta pendent la seva validació definitiva.